<?xml version="1.0" encoding="UTF-8" standalone="no" ?>
<gpx xmlns="http://www.topografix.com/GPX/1/1" xmlns:xsi="http://www.w3.org/2001/XMLSchema-instance" xsi:schemaLocation="http://www.topografix.com/GPX/1/1 http://www.topografix.com/GPX/1/1/gpx.xsd" version="1.1" creator="VisuGPX - https://www.visugpx.com">
  <metadata>
    <name>ASLPM marche Andilly le 30 Novembre 2015</name>
    <desc><![CDATA[ASLPM marche Andilly le 30 Novembre 2015
]]></desc>
  </metadata>
  <trk>
    <name><![CDATA[30/11/2015 09:05:36]]></name>
    <trkseg>
      <trkpt lat="46.25517" lon="-1.01923">
        <ele>18.3</ele>
        <time>2015-11-30T08:05:36Z</time>
      </trkpt>
      <trkpt lat="46.25517" lon="-1.01923">
        <ele>18.3</ele>
        <time>2015-11-30T08:05:39Z</time>
      </trkpt>
      <trkpt lat="46.25505" lon="-1.01932">
        <ele>18.4</ele>
        <time>2015-11-30T08:05:40Z</time>
      </trkpt>
      <trkpt lat="46.25506" lon="-1.01931">
        <ele>18.4</ele>
        <time>2015-11-30T08:05:41Z</time>
      </trkpt>
      <trkpt lat="46.25503" lon="-1.01926">
        <ele>18.6</ele>
        <time>2015-11-30T08:05:43Z</time>
      </trkpt>
      <trkpt lat="46.25502" lon="-1.01923">
        <ele>18.7</ele>
        <time>2015-11-30T08:05:46Z</time>
      </trkpt>
      <trkpt lat="46.25498" lon="-1.01899">
        <ele>18.9</ele>
        <time>2015-11-30T08:06:00Z</time>
      </trkpt>
      <trkpt lat="46.25499" lon="-1.01896">
        <ele>19</ele>
        <time>2015-11-30T08:06:01Z</time>
      </trkpt>
      <trkpt lat="46.25499" lon="-1.01884">
        <ele>19</ele>
        <time>2015-11-30T08:06:07Z</time>
      </trkpt>
      <trkpt lat="46.25497" lon="-1.01862">
        <ele>19</ele>
        <time>2015-11-30T08:06:21Z</time>
      </trkpt>
      <trkpt lat="46.25497" lon="-1.01851">
        <ele>19</ele>
        <time>2015-11-30T08:06:28Z</time>
      </trkpt>
      <trkpt lat="46.25496" lon="-1.01825">
        <ele>19</ele>
        <time>2015-11-30T08:06:43Z</time>
      </trkpt>
      <trkpt lat="46.25496" lon="-1.0181">
        <ele>19</ele>
        <time>2015-11-30T08:06:51Z</time>
      </trkpt>
      <trkpt lat="46.25495" lon="-1.01799">
        <ele>19</ele>
        <time>2015-11-30T08:06:57Z</time>
      </trkpt>
      <trkpt lat="46.25494" lon="-1.01778">
        <ele>19</ele>
        <time>2015-11-30T08:07:08Z</time>
      </trkpt>
      <trkpt lat="46.25495" lon="-1.01771">
        <ele>19.2</ele>
        <time>2015-11-30T08:07:12Z</time>
      </trkpt>
      <trkpt lat="46.25493" lon="-1.01743">
        <ele>19.8</ele>
        <time>2015-11-30T08:07:26Z</time>
      </trkpt>
      <trkpt lat="46.25491" lon="-1.01717">
        <ele>20</ele>
        <time>2015-11-30T08:07:39Z</time>
      </trkpt>
      <trkpt lat="46.25488" lon="-1.0169">
        <ele>20</ele>
        <time>2015-11-30T08:07:52Z</time>
      </trkpt>
      <trkpt lat="46.25486" lon="-1.01665">
        <ele>20</ele>
        <time>2015-11-30T08:08:06Z</time>
      </trkpt>
      <trkpt lat="46.25476" lon="-1.01657">
        <ele>20</ele>
        <time>2015-11-30T08:08:16Z</time>
      </trkpt>
      <trkpt lat="46.25468" lon="-1.01661">
        <ele>20</ele>
        <time>2015-11-30T08:08:24Z</time>
      </trkpt>
      <trkpt lat="46.25466" lon="-1.01662">
        <ele>20</ele>
        <time>2015-11-30T08:08:26Z</time>
      </trkpt>
      <trkpt lat="46.25447" lon="-1.01665">
        <ele>20</ele>
        <time>2015-11-30T08:08:48Z</time>
      </trkpt>
      <trkpt lat="46.25429" lon="-1.01671">
        <ele>20</ele>
        <time>2015-11-30T08:09:03Z</time>
      </trkpt>
      <trkpt lat="46.25411" lon="-1.01675">
        <ele>20</ele>
        <time>2015-11-30T08:09:17Z</time>
      </trkpt>
      <trkpt lat="46.25393" lon="-1.01682">
        <ele>20</ele>
        <time>2015-11-30T08:09:31Z</time>
      </trkpt>
      <trkpt lat="46.25374" lon="-1.01688">
        <ele>19.5</ele>
        <time>2015-11-30T08:09:45Z</time>
      </trkpt>
      <trkpt lat="46.25355" lon="-1.01692">
        <ele>19</ele>
        <time>2015-11-30T08:09:59Z</time>
      </trkpt>
      <trkpt lat="46.25339" lon="-1.01701">
        <ele>19</ele>
        <time>2015-11-30T08:10:12Z</time>
      </trkpt>
      <trkpt lat="46.25321" lon="-1.01706">
        <ele>18.6</ele>
        <time>2015-11-30T08:10:23Z</time>
      </trkpt>
      <trkpt lat="46.25302" lon="-1.0171">
        <ele>18</ele>
        <time>2015-11-30T08:10:31Z</time>
      </trkpt>
      <trkpt lat="46.25285" lon="-1.01718">
        <ele>18</ele>
        <time>2015-11-30T08:10:41Z</time>
      </trkpt>
      <trkpt lat="46.25272" lon="-1.01723">
        <ele>17.8</ele>
        <time>2015-11-30T08:10:52Z</time>
      </trkpt>
      <trkpt lat="46.25266" lon="-1.01722">
        <ele>17.6</ele>
        <time>2015-11-30T08:10:56Z</time>
      </trkpt>
      <trkpt lat="46.25247" lon="-1.01728">
        <ele>16.7</ele>
        <time>2015-11-30T08:11:07Z</time>
      </trkpt>
      <trkpt lat="46.25245" lon="-1.01729">
        <ele>16.6</ele>
        <time>2015-11-30T08:11:09Z</time>
      </trkpt>
      <trkpt lat="46.25226" lon="-1.01733">
        <ele>15.8</ele>
        <time>2015-11-30T08:11:21Z</time>
      </trkpt>
      <trkpt lat="46.2522" lon="-1.01736">
        <ele>15.5</ele>
        <time>2015-11-30T08:11:26Z</time>
      </trkpt>
      <trkpt lat="46.25202" lon="-1.01741">
        <ele>15.1</ele>
        <time>2015-11-30T08:11:39Z</time>
      </trkpt>
      <trkpt lat="46.25184" lon="-1.01746">
        <ele>15</ele>
        <time>2015-11-30T08:11:52Z</time>
      </trkpt>
      <trkpt lat="46.25166" lon="-1.01751">
        <ele>15</ele>
        <time>2015-11-30T08:12:05Z</time>
      </trkpt>
      <trkpt lat="46.25148" lon="-1.01757">
        <ele>14.8</ele>
        <time>2015-11-30T08:12:18Z</time>
      </trkpt>
      <trkpt lat="46.25129" lon="-1.01762">
        <ele>14.7</ele>
        <time>2015-11-30T08:12:32Z</time>
      </trkpt>
      <trkpt lat="46.25111" lon="-1.01767">
        <ele>15</ele>
        <time>2015-11-30T08:12:45Z</time>
      </trkpt>
      <trkpt lat="46.25093" lon="-1.01772">
        <ele>15.1</ele>
        <time>2015-11-30T08:12:58Z</time>
      </trkpt>
      <trkpt lat="46.25075" lon="-1.01778">
        <ele>15.3</ele>
        <time>2015-11-30T08:13:11Z</time>
      </trkpt>
      <trkpt lat="46.25056" lon="-1.01784">
        <ele>16</ele>
        <time>2015-11-30T08:13:25Z</time>
      </trkpt>
      <trkpt lat="46.25037" lon="-1.01789">
        <ele>16.4</ele>
        <time>2015-11-30T08:13:39Z</time>
      </trkpt>
      <trkpt lat="46.25019" lon="-1.01795">
        <ele>16.6</ele>
        <time>2015-11-30T08:13:52Z</time>
      </trkpt>
      <trkpt lat="46.25" lon="-1.01801">
        <ele>17</ele>
        <time>2015-11-30T08:14:06Z</time>
      </trkpt>
      <trkpt lat="46.24982" lon="-1.01807">
        <ele>17.6</ele>
        <time>2015-11-30T08:14:19Z</time>
      </trkpt>
      <trkpt lat="46.24964" lon="-1.01812">
        <ele>17.8</ele>
        <time>2015-11-30T08:14:32Z</time>
      </trkpt>
      <trkpt lat="46.24946" lon="-1.01817">
        <ele>18</ele>
        <time>2015-11-30T08:14:45Z</time>
      </trkpt>
      <trkpt lat="46.24928" lon="-1.01822">
        <ele>18.2</ele>
        <time>2015-11-30T08:14:58Z</time>
      </trkpt>
      <trkpt lat="46.24909" lon="-1.01828">
        <ele>18.1</ele>
        <time>2015-11-30T08:15:11Z</time>
      </trkpt>
      <trkpt lat="46.24891" lon="-1.01834">
        <ele>18</ele>
        <time>2015-11-30T08:15:23Z</time>
      </trkpt>
      <trkpt lat="46.24872" lon="-1.01839">
        <ele>17.9</ele>
        <time>2015-11-30T08:15:36Z</time>
      </trkpt>
      <trkpt lat="46.24854" lon="-1.01843">
        <ele>17.6</ele>
        <time>2015-11-30T08:15:49Z</time>
      </trkpt>
      <trkpt lat="46.24836" lon="-1.01849">
        <ele>17.4</ele>
        <time>2015-11-30T08:16:02Z</time>
      </trkpt>
      <trkpt lat="46.24818" lon="-1.01855">
        <ele>17.6</ele>
        <time>2015-11-30T08:16:16Z</time>
      </trkpt>
      <trkpt lat="46.248" lon="-1.01861">
        <ele>18.2</ele>
        <time>2015-11-30T08:16:29Z</time>
      </trkpt>
      <trkpt lat="46.24782" lon="-1.01867">
        <ele>18.9</ele>
        <time>2015-11-30T08:16:43Z</time>
      </trkpt>
      <trkpt lat="46.24764" lon="-1.01872">
        <ele>19.5</ele>
        <time>2015-11-30T08:16:56Z</time>
      </trkpt>
      <trkpt lat="46.24746" lon="-1.01878">
        <ele>20</ele>
        <time>2015-11-30T08:17:09Z</time>
      </trkpt>
      <trkpt lat="46.24727" lon="-1.01883">
        <ele>20</ele>
        <time>2015-11-30T08:17:22Z</time>
      </trkpt>
      <trkpt lat="46.24709" lon="-1.01889">
        <ele>20.5</ele>
        <time>2015-11-30T08:17:35Z</time>
      </trkpt>
      <trkpt lat="46.2469" lon="-1.01894">
        <ele>20.8</ele>
        <time>2015-11-30T08:17:49Z</time>
      </trkpt>
      <trkpt lat="46.24672" lon="-1.019">
        <ele>20.6</ele>
        <time>2015-11-30T08:18:03Z</time>
      </trkpt>
      <trkpt lat="46.24653" lon="-1.01907">
        <ele>20.2</ele>
        <time>2015-11-30T08:18:16Z</time>
      </trkpt>
      <trkpt lat="46.2465" lon="-1.01927">
        <ele>20</ele>
        <time>2015-11-30T08:18:32Z</time>
      </trkpt>
      <trkpt lat="46.24662" lon="-1.01946">
        <ele>19.9</ele>
        <time>2015-11-30T08:18:48Z</time>
      </trkpt>
      <trkpt lat="46.24674" lon="-1.01967">
        <ele>19.2</ele>
        <time>2015-11-30T08:19:02Z</time>
      </trkpt>
      <trkpt lat="46.24686" lon="-1.01987">
        <ele>19</ele>
        <time>2015-11-30T08:19:16Z</time>
      </trkpt>
      <trkpt lat="46.24699" lon="-1.02006">
        <ele>19</ele>
        <time>2015-11-30T08:19:29Z</time>
      </trkpt>
      <trkpt lat="46.24714" lon="-1.02022">
        <ele>18.4</ele>
        <time>2015-11-30T08:19:43Z</time>
      </trkpt>
      <trkpt lat="46.24729" lon="-1.02039">
        <ele>18</ele>
        <time>2015-11-30T08:19:57Z</time>
      </trkpt>
      <trkpt lat="46.24744" lon="-1.02054">
        <ele>18</ele>
        <time>2015-11-30T08:20:10Z</time>
      </trkpt>
      <trkpt lat="46.24759" lon="-1.02069">
        <ele>17.8</ele>
        <time>2015-11-30T08:20:23Z</time>
      </trkpt>
      <trkpt lat="46.24775" lon="-1.02084">
        <ele>17.1</ele>
        <time>2015-11-30T08:20:36Z</time>
      </trkpt>
      <trkpt lat="46.2479" lon="-1.02099">
        <ele>17</ele>
        <time>2015-11-30T08:20:49Z</time>
      </trkpt>
      <trkpt lat="46.24806" lon="-1.02114">
        <ele>17</ele>
        <time>2015-11-30T08:21:03Z</time>
      </trkpt>
      <trkpt lat="46.24821" lon="-1.02129">
        <ele>16.4</ele>
        <time>2015-11-30T08:21:16Z</time>
      </trkpt>
      <trkpt lat="46.24836" lon="-1.02144">
        <ele>15.9</ele>
        <time>2015-11-30T08:21:29Z</time>
      </trkpt>
      <trkpt lat="46.24851" lon="-1.0216">
        <ele>15.4</ele>
        <time>2015-11-30T08:21:42Z</time>
      </trkpt>
      <trkpt lat="46.24866" lon="-1.02176">
        <ele>14.8</ele>
        <time>2015-11-30T08:21:55Z</time>
      </trkpt>
      <trkpt lat="46.24879" lon="-1.02191">
        <ele>14.4</ele>
        <time>2015-11-30T08:22:08Z</time>
      </trkpt>
      <trkpt lat="46.24895" lon="-1.02206">
        <ele>14</ele>
        <time>2015-11-30T08:22:21Z</time>
      </trkpt>
      <trkpt lat="46.2491" lon="-1.02222">
        <ele>14</ele>
        <time>2015-11-30T08:22:34Z</time>
      </trkpt>
      <trkpt lat="46.24925" lon="-1.02238">
        <ele>13.9</ele>
        <time>2015-11-30T08:22:47Z</time>
      </trkpt>
      <trkpt lat="46.2494" lon="-1.02255">
        <ele>13.8</ele>
        <time>2015-11-30T08:23:01Z</time>
      </trkpt>
      <trkpt lat="46.24955" lon="-1.0227">
        <ele>13.2</ele>
        <time>2015-11-30T08:23:14Z</time>
      </trkpt>
      <trkpt lat="46.2497" lon="-1.02283">
        <ele>13</ele>
        <time>2015-11-30T08:23:27Z</time>
      </trkpt>
      <trkpt lat="46.24985" lon="-1.02299">
        <ele>13</ele>
        <time>2015-11-30T08:23:41Z</time>
      </trkpt>
      <trkpt lat="46.25002" lon="-1.02314">
        <ele>12.6</ele>
        <time>2015-11-30T08:23:55Z</time>
      </trkpt>
      <trkpt lat="46.25017" lon="-1.02331">
        <ele>12</ele>
        <time>2015-11-30T08:24:09Z</time>
      </trkpt>
      <trkpt lat="46.25033" lon="-1.02348">
        <ele>11.9</ele>
        <time>2015-11-30T08:24:23Z</time>
      </trkpt>
      <trkpt lat="46.25047" lon="-1.02363">
        <ele>11.3</ele>
        <time>2015-11-30T08:24:36Z</time>
      </trkpt>
      <trkpt lat="46.25063" lon="-1.02379">
        <ele>11</ele>
        <time>2015-11-30T08:24:50Z</time>
      </trkpt>
      <trkpt lat="46.25078" lon="-1.02395">
        <ele>11</ele>
        <time>2015-11-30T08:25:04Z</time>
      </trkpt>
      <trkpt lat="46.25094" lon="-1.02409">
        <ele>10.6</ele>
        <time>2015-11-30T08:25:17Z</time>
      </trkpt>
      <trkpt lat="46.25108" lon="-1.02426">
        <ele>10.1</ele>
        <time>2015-11-30T08:25:31Z</time>
      </trkpt>
      <trkpt lat="46.25124" lon="-1.02442">
        <ele>10</ele>
        <time>2015-11-30T08:25:44Z</time>
      </trkpt>
      <trkpt lat="46.25139" lon="-1.02458">
        <ele>9.5</ele>
        <time>2015-11-30T08:25:58Z</time>
      </trkpt>
      <trkpt lat="46.25144" lon="-1.02463">
        <ele>9.3</ele>
        <time>2015-11-30T08:26:03Z</time>
      </trkpt>
      <trkpt lat="46.25146" lon="-1.0247">
        <ele>9.1</ele>
        <time>2015-11-30T08:26:08Z</time>
      </trkpt>
      <trkpt lat="46.25148" lon="-1.02479">
        <ele>9</ele>
        <time>2015-11-30T08:26:13Z</time>
      </trkpt>
      <trkpt lat="46.25151" lon="-1.02489">
        <ele>9</ele>
        <time>2015-11-30T08:26:19Z</time>
      </trkpt>
      <trkpt lat="46.25149" lon="-1.02495">
        <ele>9</ele>
        <time>2015-11-30T08:26:23Z</time>
      </trkpt>
      <trkpt lat="46.25139" lon="-1.02511">
        <ele>9</ele>
        <time>2015-11-30T08:26:35Z</time>
      </trkpt>
      <trkpt lat="46.25135" lon="-1.02515">
        <ele>9.1</ele>
        <time>2015-11-30T08:26:39Z</time>
      </trkpt>
      <trkpt lat="46.25119" lon="-1.02531">
        <ele>9.1</ele>
        <time>2015-11-30T08:26:54Z</time>
      </trkpt>
      <trkpt lat="46.25103" lon="-1.02545">
        <ele>9.7</ele>
        <time>2015-11-30T08:27:07Z</time>
      </trkpt>
      <trkpt lat="46.25087" lon="-1.02558">
        <ele>10</ele>
        <time>2015-11-30T08:27:20Z</time>
      </trkpt>
      <trkpt lat="46.2507" lon="-1.02573">
        <ele>10</ele>
        <time>2015-11-30T08:27:33Z</time>
      </trkpt>
      <trkpt lat="46.25055" lon="-1.02586">
        <ele>10</ele>
        <time>2015-11-30T08:27:46Z</time>
      </trkpt>
      <trkpt lat="46.25038" lon="-1.02598">
        <ele>10</ele>
        <time>2015-11-30T08:27:59Z</time>
      </trkpt>
      <trkpt lat="46.25022" lon="-1.0261">
        <ele>10.2</ele>
        <time>2015-11-30T08:28:12Z</time>
      </trkpt>
      <trkpt lat="46.25006" lon="-1.02621">
        <ele>10.9</ele>
        <time>2015-11-30T08:28:25Z</time>
      </trkpt>
      <trkpt lat="46.2499" lon="-1.02634">
        <ele>11.3</ele>
        <time>2015-11-30T08:28:39Z</time>
      </trkpt>
      <trkpt lat="46.24973" lon="-1.02644">
        <ele>12</ele>
        <time>2015-11-30T08:28:53Z</time>
      </trkpt>
      <trkpt lat="46.24957" lon="-1.02658">
        <ele>12</ele>
        <time>2015-11-30T08:29:06Z</time>
      </trkpt>
      <trkpt lat="46.24957" lon="-1.02684">
        <ele>12</ele>
        <time>2015-11-30T08:29:19Z</time>
      </trkpt>
      <trkpt lat="46.24966" lon="-1.02708">
        <ele>12</ele>
        <time>2015-11-30T08:29:33Z</time>
      </trkpt>
      <trkpt lat="46.24976" lon="-1.0273">
        <ele>12</ele>
        <time>2015-11-30T08:29:46Z</time>
      </trkpt>
      <trkpt lat="46.24986" lon="-1.02752">
        <ele>12.1</ele>
        <time>2015-11-30T08:29:59Z</time>
      </trkpt>
      <trkpt lat="46.24996" lon="-1.02775">
        <ele>12.9</ele>
        <time>2015-11-30T08:30:13Z</time>
      </trkpt>
      <trkpt lat="46.25006" lon="-1.02797">
        <ele>12.9</ele>
        <time>2015-11-30T08:30:26Z</time>
      </trkpt>
      <trkpt lat="46.25016" lon="-1.0282">
        <ele>13</ele>
        <time>2015-11-30T08:30:40Z</time>
      </trkpt>
      <trkpt lat="46.25026" lon="-1.02844">
        <ele>13</ele>
        <time>2015-11-30T08:30:54Z</time>
      </trkpt>
      <trkpt lat="46.25036" lon="-1.02868">
        <ele>12.8</ele>
        <time>2015-11-30T08:31:07Z</time>
      </trkpt>
      <trkpt lat="46.25046" lon="-1.0289">
        <ele>13</ele>
        <time>2015-11-30T08:31:20Z</time>
      </trkpt>
      <trkpt lat="46.25056" lon="-1.02912">
        <ele>12.2</ele>
        <time>2015-11-30T08:31:33Z</time>
      </trkpt>
      <trkpt lat="46.25062" lon="-1.02929">
        <ele>12.6</ele>
        <time>2015-11-30T08:31:45Z</time>
      </trkpt>
      <trkpt lat="46.25058" lon="-1.02937">
        <ele>12.7</ele>
        <time>2015-11-30T08:33:40Z</time>
      </trkpt>
      <trkpt lat="46.25051" lon="-1.02943">
        <ele>13.1</ele>
        <time>2015-11-30T08:33:48Z</time>
      </trkpt>
      <trkpt lat="46.25034" lon="-1.02949">
        <ele>13.8</ele>
        <time>2015-11-30T08:34:04Z</time>
      </trkpt>
      <trkpt lat="46.25015" lon="-1.02951">
        <ele>14.1</ele>
        <time>2015-11-30T08:34:19Z</time>
      </trkpt>
      <trkpt lat="46.24998" lon="-1.02955">
        <ele>14.4</ele>
        <time>2015-11-30T08:34:34Z</time>
      </trkpt>
      <trkpt lat="46.24979" lon="-1.02959">
        <ele>14.5</ele>
        <time>2015-11-30T08:34:49Z</time>
      </trkpt>
      <trkpt lat="46.2496" lon="-1.02963">
        <ele>14.7</ele>
        <time>2015-11-30T08:35:04Z</time>
      </trkpt>
      <trkpt lat="46.24942" lon="-1.02964">
        <ele>14.7</ele>
        <time>2015-11-30T08:35:18Z</time>
      </trkpt>
      <trkpt lat="46.24937" lon="-1.02966">
        <ele>14.8</ele>
        <time>2015-11-30T08:35:23Z</time>
      </trkpt>
      <trkpt lat="46.24922" lon="-1.02967">
        <ele>15</ele>
        <time>2015-11-30T08:35:37Z</time>
      </trkpt>
      <trkpt lat="46.24904" lon="-1.02969">
        <ele>15</ele>
        <time>2015-11-30T08:35:53Z</time>
      </trkpt>
      <trkpt lat="46.24885" lon="-1.02968">
        <ele>15</ele>
        <time>2015-11-30T08:36:08Z</time>
      </trkpt>
      <trkpt lat="46.24866" lon="-1.0297">
        <ele>15</ele>
        <time>2015-11-30T08:36:21Z</time>
      </trkpt>
      <trkpt lat="46.24847" lon="-1.02969">
        <ele>15.1</ele>
        <time>2015-11-30T08:36:35Z</time>
      </trkpt>
      <trkpt lat="46.24829" lon="-1.02963">
        <ele>15.3</ele>
        <time>2015-11-30T08:36:49Z</time>
      </trkpt>
      <trkpt lat="46.2481" lon="-1.02956">
        <ele>15.1</ele>
        <time>2015-11-30T08:37:02Z</time>
      </trkpt>
      <trkpt lat="46.24791" lon="-1.02952">
        <ele>15.4</ele>
        <time>2015-11-30T08:37:15Z</time>
      </trkpt>
      <trkpt lat="46.24773" lon="-1.0295">
        <ele>15.8</ele>
        <time>2015-11-30T08:37:28Z</time>
      </trkpt>
      <trkpt lat="46.24755" lon="-1.0295">
        <ele>15.8</ele>
        <time>2015-11-30T08:37:41Z</time>
      </trkpt>
      <trkpt lat="46.24747" lon="-1.02951">
        <ele>15.8</ele>
        <time>2015-11-30T08:37:47Z</time>
      </trkpt>
      <trkpt lat="46.24728" lon="-1.02951">
        <ele>15.8</ele>
        <time>2015-11-30T08:38:01Z</time>
      </trkpt>
      <trkpt lat="46.24709" lon="-1.02952">
        <ele>15.4</ele>
        <time>2015-11-30T08:38:14Z</time>
      </trkpt>
      <trkpt lat="46.2469" lon="-1.02954">
        <ele>15</ele>
        <time>2015-11-30T08:38:27Z</time>
      </trkpt>
      <trkpt lat="46.24676" lon="-1.02958">
        <ele>15</ele>
        <time>2015-11-30T08:38:38Z</time>
      </trkpt>
      <trkpt lat="46.24662" lon="-1.02962">
        <ele>15</ele>
        <time>2015-11-30T08:39:43Z</time>
      </trkpt>
      <trkpt lat="46.24661" lon="-1.02963">
        <ele>15</ele>
        <time>2015-11-30T08:39:44Z</time>
      </trkpt>
      <trkpt lat="46.24643" lon="-1.02966">
        <ele>15</ele>
        <time>2015-11-30T08:39:59Z</time>
      </trkpt>
      <trkpt lat="46.24624" lon="-1.02969">
        <ele>14.9</ele>
        <time>2015-11-30T08:40:13Z</time>
      </trkpt>
      <trkpt lat="46.24605" lon="-1.02973">
        <ele>14.8</ele>
        <time>2015-11-30T08:40:27Z</time>
      </trkpt>
      <trkpt lat="46.24587" lon="-1.02975">
        <ele>14.1</ele>
        <time>2015-11-30T08:40:40Z</time>
      </trkpt>
      <trkpt lat="46.24569" lon="-1.02978">
        <ele>14</ele>
        <time>2015-11-30T08:40:52Z</time>
      </trkpt>
      <trkpt lat="46.24551" lon="-1.0298">
        <ele>14</ele>
        <time>2015-11-30T08:41:06Z</time>
      </trkpt>
      <trkpt lat="46.24533" lon="-1.02983">
        <ele>14</ele>
        <time>2015-11-30T08:41:19Z</time>
      </trkpt>
      <trkpt lat="46.24513" lon="-1.02986">
        <ele>13.5</ele>
        <time>2015-11-30T08:41:33Z</time>
      </trkpt>
      <trkpt lat="46.24494" lon="-1.02988">
        <ele>12.9</ele>
        <time>2015-11-30T08:41:47Z</time>
      </trkpt>
      <trkpt lat="46.24476" lon="-1.0299">
        <ele>12.4</ele>
        <time>2015-11-30T08:42:00Z</time>
      </trkpt>
      <trkpt lat="46.24457" lon="-1.02992">
        <ele>12.1</ele>
        <time>2015-11-30T08:42:12Z</time>
      </trkpt>
      <trkpt lat="46.24439" lon="-1.02995">
        <ele>11.8</ele>
        <time>2015-11-30T08:42:24Z</time>
      </trkpt>
      <trkpt lat="46.2442" lon="-1.02997">
        <ele>11.1</ele>
        <time>2015-11-30T08:42:37Z</time>
      </trkpt>
      <trkpt lat="46.24403" lon="-1.03003">
        <ele>10.4</ele>
        <time>2015-11-30T08:42:50Z</time>
      </trkpt>
      <trkpt lat="46.24384" lon="-1.0301">
        <ele>9.7</ele>
        <time>2015-11-30T08:43:03Z</time>
      </trkpt>
      <trkpt lat="46.24367" lon="-1.03015">
        <ele>9.5</ele>
        <time>2015-11-30T08:43:16Z</time>
      </trkpt>
      <trkpt lat="46.24349" lon="-1.03024">
        <ele>9.1</ele>
        <time>2015-11-30T08:43:30Z</time>
      </trkpt>
      <trkpt lat="46.24331" lon="-1.03033">
        <ele>9</ele>
        <time>2015-11-30T08:43:44Z</time>
      </trkpt>
      <trkpt lat="46.24314" lon="-1.03043">
        <ele>8.6</ele>
        <time>2015-11-30T08:43:58Z</time>
      </trkpt>
      <trkpt lat="46.24296" lon="-1.03049">
        <ele>8.1</ele>
        <time>2015-11-30T08:44:11Z</time>
      </trkpt>
      <trkpt lat="46.24278" lon="-1.03054">
        <ele>8</ele>
        <time>2015-11-30T08:44:24Z</time>
      </trkpt>
      <trkpt lat="46.2426" lon="-1.03059">
        <ele>7.9</ele>
        <time>2015-11-30T08:44:38Z</time>
      </trkpt>
      <trkpt lat="46.24241" lon="-1.03061">
        <ele>7.5</ele>
        <time>2015-11-30T08:44:52Z</time>
      </trkpt>
      <trkpt lat="46.24223" lon="-1.0306">
        <ele>7</ele>
        <time>2015-11-30T08:45:06Z</time>
      </trkpt>
      <trkpt lat="46.24204" lon="-1.03055">
        <ele>7</ele>
        <time>2015-11-30T08:45:20Z</time>
      </trkpt>
      <trkpt lat="46.24187" lon="-1.03049">
        <ele>6.6</ele>
        <time>2015-11-30T08:45:33Z</time>
      </trkpt>
      <trkpt lat="46.24169" lon="-1.03043">
        <ele>6</ele>
        <time>2015-11-30T08:45:46Z</time>
      </trkpt>
      <trkpt lat="46.2415" lon="-1.03037">
        <ele>6</ele>
        <time>2015-11-30T08:46:00Z</time>
      </trkpt>
      <trkpt lat="46.24132" lon="-1.03032">
        <ele>6</ele>
        <time>2015-11-30T08:46:13Z</time>
      </trkpt>
      <trkpt lat="46.24113" lon="-1.03026">
        <ele>5.9</ele>
        <time>2015-11-30T08:46:26Z</time>
      </trkpt>
      <trkpt lat="46.24095" lon="-1.03022">
        <ele>5.3</ele>
        <time>2015-11-30T08:46:38Z</time>
      </trkpt>
      <trkpt lat="46.24077" lon="-1.03015">
        <ele>5</ele>
        <time>2015-11-30T08:46:52Z</time>
      </trkpt>
      <trkpt lat="46.24059" lon="-1.03008">
        <ele>5</ele>
        <time>2015-11-30T08:47:04Z</time>
      </trkpt>
      <trkpt lat="46.24041" lon="-1.03">
        <ele>5</ele>
        <time>2015-11-30T08:47:17Z</time>
      </trkpt>
      <trkpt lat="46.24022" lon="-1.02995">
        <ele>4.8</ele>
        <time>2015-11-30T08:47:29Z</time>
      </trkpt>
      <trkpt lat="46.24021" lon="-1.02996">
        <ele>4.8</ele>
        <time>2015-11-30T08:47:30Z</time>
      </trkpt>
      <trkpt lat="46.24024" lon="-1.03017">
        <ele>4.8</ele>
        <time>2015-11-30T08:47:41Z</time>
      </trkpt>
      <trkpt lat="46.24035" lon="-1.03038">
        <ele>4.7</ele>
        <time>2015-11-30T08:47:54Z</time>
      </trkpt>
      <trkpt lat="46.24046" lon="-1.03059">
        <ele>4.7</ele>
        <time>2015-11-30T08:48:07Z</time>
      </trkpt>
      <trkpt lat="46.24059" lon="-1.0308">
        <ele>5</ele>
        <time>2015-11-30T08:48:20Z</time>
      </trkpt>
      <trkpt lat="46.24071" lon="-1.03102">
        <ele>5</ele>
        <time>2015-11-30T08:48:33Z</time>
      </trkpt>
      <trkpt lat="46.2408" lon="-1.03118">
        <ele>5</ele>
        <time>2015-11-30T08:48:43Z</time>
      </trkpt>
      <trkpt lat="46.24089" lon="-1.03135">
        <ele>5</ele>
        <time>2015-11-30T08:48:53Z</time>
      </trkpt>
      <trkpt lat="46.241" lon="-1.03157">
        <ele>4.7</ele>
        <time>2015-11-30T08:49:06Z</time>
      </trkpt>
      <trkpt lat="46.24112" lon="-1.03178">
        <ele>5</ele>
        <time>2015-11-30T08:49:19Z</time>
      </trkpt>
      <trkpt lat="46.24125" lon="-1.03199">
        <ele>4.9</ele>
        <time>2015-11-30T08:49:32Z</time>
      </trkpt>
      <trkpt lat="46.24136" lon="-1.0322">
        <ele>4.9</ele>
        <time>2015-11-30T08:49:45Z</time>
      </trkpt>
      <trkpt lat="46.24149" lon="-1.03241">
        <ele>4.6</ele>
        <time>2015-11-30T08:49:58Z</time>
      </trkpt>
      <trkpt lat="46.24161" lon="-1.0326">
        <ele>4.8</ele>
        <time>2015-11-30T08:50:11Z</time>
      </trkpt>
      <trkpt lat="46.24173" lon="-1.03282">
        <ele>5.2</ele>
        <time>2015-11-30T08:50:24Z</time>
      </trkpt>
      <trkpt lat="46.24186" lon="-1.03302">
        <ele>5.1</ele>
        <time>2015-11-30T08:50:37Z</time>
      </trkpt>
      <trkpt lat="46.24198" lon="-1.03323">
        <ele>5.1</ele>
        <time>2015-11-30T08:50:50Z</time>
      </trkpt>
      <trkpt lat="46.24211" lon="-1.03343">
        <ele>5.6</ele>
        <time>2015-11-30T08:51:04Z</time>
      </trkpt>
      <trkpt lat="46.24222" lon="-1.03364">
        <ele>6</ele>
        <time>2015-11-30T08:51:16Z</time>
      </trkpt>
      <trkpt lat="46.24234" lon="-1.03385">
        <ele>6</ele>
        <time>2015-11-30T08:51:29Z</time>
      </trkpt>
      <trkpt lat="46.24247" lon="-1.03405">
        <ele>5.9</ele>
        <time>2015-11-30T08:51:43Z</time>
      </trkpt>
      <trkpt lat="46.24259" lon="-1.03425">
        <ele>6</ele>
        <time>2015-11-30T08:51:56Z</time>
      </trkpt>
      <trkpt lat="46.24271" lon="-1.03447">
        <ele>6.1</ele>
        <time>2015-11-30T08:52:10Z</time>
      </trkpt>
      <trkpt lat="46.24283" lon="-1.03467">
        <ele>6.8</ele>
        <time>2015-11-30T08:52:23Z</time>
      </trkpt>
      <trkpt lat="46.24295" lon="-1.03487">
        <ele>6.8</ele>
        <time>2015-11-30T08:52:36Z</time>
      </trkpt>
      <trkpt lat="46.24307" lon="-1.03507">
        <ele>7</ele>
        <time>2015-11-30T08:52:49Z</time>
      </trkpt>
      <trkpt lat="46.24319" lon="-1.03529">
        <ele>7.5</ele>
        <time>2015-11-30T08:53:03Z</time>
      </trkpt>
      <trkpt lat="46.24331" lon="-1.0355">
        <ele>7.2</ele>
        <time>2015-11-30T08:53:16Z</time>
      </trkpt>
      <trkpt lat="46.24338" lon="-1.0356">
        <ele>7.2</ele>
        <time>2015-11-30T08:53:23Z</time>
      </trkpt>
      <trkpt lat="46.24351" lon="-1.03581">
        <ele>7.6</ele>
        <time>2015-11-30T08:53:36Z</time>
      </trkpt>
      <trkpt lat="46.24363" lon="-1.03602">
        <ele>7.4</ele>
        <time>2015-11-30T08:53:49Z</time>
      </trkpt>
      <trkpt lat="46.24374" lon="-1.03623">
        <ele>7.3</ele>
        <time>2015-11-30T08:54:02Z</time>
      </trkpt>
      <trkpt lat="46.24387" lon="-1.03643">
        <ele>7</ele>
        <time>2015-11-30T08:54:15Z</time>
      </trkpt>
      <trkpt lat="46.24395" lon="-1.03658">
        <ele>7.1</ele>
        <time>2015-11-30T08:54:25Z</time>
      </trkpt>
      <trkpt lat="46.24401" lon="-1.03667">
        <ele>7</ele>
        <time>2015-11-30T08:54:32Z</time>
      </trkpt>
      <trkpt lat="46.24411" lon="-1.03689">
        <ele>6.2</ele>
        <time>2015-11-30T08:54:46Z</time>
      </trkpt>
      <trkpt lat="46.24423" lon="-1.0371">
        <ele>5.4</ele>
        <time>2015-11-30T08:55:00Z</time>
      </trkpt>
      <trkpt lat="46.24435" lon="-1.03731">
        <ele>5.2</ele>
        <time>2015-11-30T08:55:14Z</time>
      </trkpt>
      <trkpt lat="46.24447" lon="-1.0375">
        <ele>5.9</ele>
        <time>2015-11-30T08:55:27Z</time>
      </trkpt>
      <trkpt lat="46.24459" lon="-1.03769">
        <ele>5.1</ele>
        <time>2015-11-30T08:55:40Z</time>
      </trkpt>
      <trkpt lat="46.24471" lon="-1.0379">
        <ele>5</ele>
        <time>2015-11-30T08:55:54Z</time>
      </trkpt>
      <trkpt lat="46.24482" lon="-1.0381">
        <ele>5</ele>
        <time>2015-11-30T08:56:08Z</time>
      </trkpt>
      <trkpt lat="46.24494" lon="-1.03831">
        <ele>5</ele>
        <time>2015-11-30T08:56:22Z</time>
      </trkpt>
      <trkpt lat="46.24505" lon="-1.03852">
        <ele>5</ele>
        <time>2015-11-30T08:56:36Z</time>
      </trkpt>
      <trkpt lat="46.24517" lon="-1.03874">
        <ele>5</ele>
        <time>2015-11-30T08:56:50Z</time>
      </trkpt>
      <trkpt lat="46.2453" lon="-1.03894">
        <ele>5</ele>
        <time>2015-11-30T08:57:03Z</time>
      </trkpt>
      <trkpt lat="46.24542" lon="-1.03914">
        <ele>5</ele>
        <time>2015-11-30T08:57:17Z</time>
      </trkpt>
      <trkpt lat="46.24558" lon="-1.03932">
        <ele>5</ele>
        <time>2015-11-30T08:57:31Z</time>
      </trkpt>
      <trkpt lat="46.24573" lon="-1.03944">
        <ele>5</ele>
        <time>2015-11-30T08:57:44Z</time>
      </trkpt>
      <trkpt lat="46.2459" lon="-1.03954">
        <ele>4.5</ele>
        <time>2015-11-30T08:57:57Z</time>
      </trkpt>
      <trkpt lat="46.24607" lon="-1.03964">
        <ele>4</ele>
        <time>2015-11-30T08:58:11Z</time>
      </trkpt>
      <trkpt lat="46.24624" lon="-1.03973">
        <ele>4</ele>
        <time>2015-11-30T08:58:24Z</time>
      </trkpt>
      <trkpt lat="46.24642" lon="-1.03981">
        <ele>4</ele>
        <time>2015-11-30T08:58:38Z</time>
      </trkpt>
      <trkpt lat="46.2466" lon="-1.0399">
        <ele>4</ele>
        <time>2015-11-30T08:58:51Z</time>
      </trkpt>
      <trkpt lat="46.24677" lon="-1.03998">
        <ele>4</ele>
        <time>2015-11-30T08:59:04Z</time>
      </trkpt>
      <trkpt lat="46.24693" lon="-1.04011">
        <ele>4</ele>
        <time>2015-11-30T08:59:16Z</time>
      </trkpt>
      <trkpt lat="46.24708" lon="-1.04028">
        <ele>4</ele>
        <time>2015-11-30T08:59:29Z</time>
      </trkpt>
      <trkpt lat="46.24709" lon="-1.04029">
        <ele>4</ele>
        <time>2015-11-30T08:59:30Z</time>
      </trkpt>
      <trkpt lat="46.24713" lon="-1.04034">
        <ele>4.2</ele>
        <time>2015-11-30T08:59:34Z</time>
      </trkpt>
      <trkpt lat="46.24724" lon="-1.04056">
        <ele>5</ele>
        <time>2015-11-30T08:59:47Z</time>
      </trkpt>
      <trkpt lat="46.24732" lon="-1.04079">
        <ele>5</ele>
        <time>2015-11-30T08:59:59Z</time>
      </trkpt>
      <trkpt lat="46.2474" lon="-1.04104">
        <ele>4.7</ele>
        <time>2015-11-30T09:00:11Z</time>
      </trkpt>
      <trkpt lat="46.24743" lon="-1.0413">
        <ele>4.7</ele>
        <time>2015-11-30T09:00:23Z</time>
      </trkpt>
      <trkpt lat="46.24748" lon="-1.04156">
        <ele>4.9</ele>
        <time>2015-11-30T09:00:36Z</time>
      </trkpt>
      <trkpt lat="46.24751" lon="-1.04182">
        <ele>5</ele>
        <time>2015-11-30T09:00:48Z</time>
      </trkpt>
      <trkpt lat="46.24755" lon="-1.04209">
        <ele>5</ele>
        <time>2015-11-30T09:01:00Z</time>
      </trkpt>
      <trkpt lat="46.24757" lon="-1.04236">
        <ele>4.6</ele>
        <time>2015-11-30T09:01:12Z</time>
      </trkpt>
      <trkpt lat="46.24762" lon="-1.04262">
        <ele>4.4</ele>
        <time>2015-11-30T09:01:23Z</time>
      </trkpt>
      <trkpt lat="46.24772" lon="-1.04284">
        <ele>4.8</ele>
        <time>2015-11-30T09:01:36Z</time>
      </trkpt>
      <trkpt lat="46.24773" lon="-1.04303">
        <ele>4.8</ele>
        <time>2015-11-30T09:02:18Z</time>
      </trkpt>
      <trkpt lat="46.24772" lon="-1.0433">
        <ele>4.8</ele>
        <time>2015-11-30T09:02:29Z</time>
      </trkpt>
      <trkpt lat="46.24772" lon="-1.04332">
        <ele>4.8</ele>
        <time>2015-11-30T09:02:30Z</time>
      </trkpt>
      <trkpt lat="46.2477" lon="-1.04343">
        <ele>4.6</ele>
        <time>2015-11-30T09:02:35Z</time>
      </trkpt>
      <trkpt lat="46.2477" lon="-1.0437">
        <ele>4.4</ele>
        <time>2015-11-30T09:02:46Z</time>
      </trkpt>
      <trkpt lat="46.24767" lon="-1.04395">
        <ele>4.1</ele>
        <time>2015-11-30T09:02:59Z</time>
      </trkpt>
      <trkpt lat="46.24764" lon="-1.04399">
        <ele>3.8</ele>
        <time>2015-11-30T09:03:03Z</time>
      </trkpt>
      <trkpt lat="46.24767" lon="-1.04397">
        <ele>4</ele>
        <time>2015-11-30T09:03:16Z</time>
      </trkpt>
      <trkpt lat="46.24775" lon="-1.04378">
        <ele>4.8</ele>
        <time>2015-11-30T09:03:40Z</time>
      </trkpt>
      <trkpt lat="46.24776" lon="-1.04363">
        <ele>4.8</ele>
        <time>2015-11-30T09:03:46Z</time>
      </trkpt>
      <trkpt lat="46.24775" lon="-1.04337">
        <ele>4.9</ele>
        <time>2015-11-30T09:03:53Z</time>
      </trkpt>
      <trkpt lat="46.24777" lon="-1.04324">
        <ele>5</ele>
        <time>2015-11-30T09:03:58Z</time>
      </trkpt>
      <trkpt lat="46.24777" lon="-1.04297">
        <ele>5</ele>
        <time>2015-11-30T09:04:11Z</time>
      </trkpt>
      <trkpt lat="46.24775" lon="-1.04287">
        <ele>4.9</ele>
        <time>2015-11-30T09:04:18Z</time>
      </trkpt>
      <trkpt lat="46.24773" lon="-1.04288">
        <ele>4.8</ele>
        <time>2015-11-30T09:07:20Z</time>
      </trkpt>
      <trkpt lat="46.2478" lon="-1.04282">
        <ele>5</ele>
        <time>2015-11-30T09:08:12Z</time>
      </trkpt>
      <trkpt lat="46.24791" lon="-1.04281">
        <ele>5</ele>
        <time>2015-11-30T09:08:23Z</time>
      </trkpt>
      <trkpt lat="46.24802" lon="-1.04295">
        <ele>5</ele>
        <time>2015-11-30T09:09:01Z</time>
      </trkpt>
      <trkpt lat="46.24797" lon="-1.04321">
        <ele>4.6</ele>
        <time>2015-11-30T09:09:19Z</time>
      </trkpt>
      <trkpt lat="46.24795" lon="-1.04347">
        <ele>4.4</ele>
        <time>2015-11-30T09:09:35Z</time>
      </trkpt>
      <trkpt lat="46.24796" lon="-1.04374">
        <ele>4.6</ele>
        <time>2015-11-30T09:09:50Z</time>
      </trkpt>
      <trkpt lat="46.248" lon="-1.04399">
        <ele>5.5</ele>
        <time>2015-11-30T09:10:09Z</time>
      </trkpt>
      <trkpt lat="46.24802" lon="-1.04407">
        <ele>6</ele>
        <time>2015-11-30T09:10:14Z</time>
      </trkpt>
      <trkpt lat="46.24803" lon="-1.04413">
        <ele>6.5</ele>
        <time>2015-11-30T09:10:18Z</time>
      </trkpt>
      <trkpt lat="46.24808" lon="-1.04439">
        <ele>5.9</ele>
        <time>2015-11-30T09:10:34Z</time>
      </trkpt>
      <trkpt lat="46.24812" lon="-1.04458">
        <ele>5.3</ele>
        <time>2015-11-30T09:10:46Z</time>
      </trkpt>
      <trkpt lat="46.24814" lon="-1.04472">
        <ele>5.1</ele>
        <time>2015-11-30T09:10:55Z</time>
      </trkpt>
      <trkpt lat="46.24814" lon="-1.04479">
        <ele>5</ele>
        <time>2015-11-30T09:10:59Z</time>
      </trkpt>
      <trkpt lat="46.24818" lon="-1.04504">
        <ele>4.4</ele>
        <time>2015-11-30T09:11:12Z</time>
      </trkpt>
      <trkpt lat="46.24822" lon="-1.04531">
        <ele>3.4</ele>
        <time>2015-11-30T09:11:26Z</time>
      </trkpt>
      <trkpt lat="46.24828" lon="-1.04556">
        <ele>3.8</ele>
        <time>2015-11-30T09:11:41Z</time>
      </trkpt>
      <trkpt lat="46.24833" lon="-1.04582">
        <ele>4</ele>
        <time>2015-11-30T09:11:55Z</time>
      </trkpt>
      <trkpt lat="46.24836" lon="-1.04609">
        <ele>3.9</ele>
        <time>2015-11-30T09:12:08Z</time>
      </trkpt>
      <trkpt lat="46.2484" lon="-1.0462">
        <ele>3.5</ele>
        <time>2015-11-30T09:12:15Z</time>
      </trkpt>
      <trkpt lat="46.24845" lon="-1.04602">
        <ele>3.6</ele>
        <time>2015-11-30T09:12:28Z</time>
      </trkpt>
      <trkpt lat="46.24843" lon="-1.04591">
        <ele>3.7</ele>
        <time>2015-11-30T09:12:34Z</time>
      </trkpt>
      <trkpt lat="46.24841" lon="-1.04565">
        <ele>3.7</ele>
        <time>2015-11-30T09:12:48Z</time>
      </trkpt>
      <trkpt lat="46.24838" lon="-1.04538">
        <ele>3.3</ele>
        <time>2015-11-30T09:13:01Z</time>
      </trkpt>
      <trkpt lat="46.24836" lon="-1.0453">
        <ele>3.1</ele>
        <time>2015-11-30T09:13:05Z</time>
      </trkpt>
      <trkpt lat="46.24835" lon="-1.04523">
        <ele>3.2</ele>
        <time>2015-11-30T09:13:09Z</time>
      </trkpt>
      <trkpt lat="46.24838" lon="-1.04496">
        <ele>3.7</ele>
        <time>2015-11-30T09:13:24Z</time>
      </trkpt>
      <trkpt lat="46.24838" lon="-1.04495">
        <ele>3.7</ele>
        <time>2015-11-30T09:13:25Z</time>
      </trkpt>
      <trkpt lat="46.24846" lon="-1.04487">
        <ele>3.3</ele>
        <time>2015-11-30T09:13:33Z</time>
      </trkpt>
      <trkpt lat="46.24863" lon="-1.04477">
        <ele>3</ele>
        <time>2015-11-30T09:13:46Z</time>
      </trkpt>
      <trkpt lat="46.24881" lon="-1.0447">
        <ele>2.9</ele>
        <time>2015-11-30T09:14:00Z</time>
      </trkpt>
      <trkpt lat="46.249" lon="-1.04464">
        <ele>2.7</ele>
        <time>2015-11-30T09:14:13Z</time>
      </trkpt>
      <trkpt lat="46.24918" lon="-1.04457">
        <ele>2.5</ele>
        <time>2015-11-30T09:14:26Z</time>
      </trkpt>
      <trkpt lat="46.24937" lon="-1.0445">
        <ele>2.8</ele>
        <time>2015-11-30T09:14:39Z</time>
      </trkpt>
      <trkpt lat="46.24955" lon="-1.04444">
        <ele>3</ele>
        <time>2015-11-30T09:14:52Z</time>
      </trkpt>
      <trkpt lat="46.24972" lon="-1.04437">
        <ele>2.7</ele>
        <time>2015-11-30T09:15:04Z</time>
      </trkpt>
      <trkpt lat="46.24991" lon="-1.04431">
        <ele>2.5</ele>
        <time>2015-11-30T09:15:17Z</time>
      </trkpt>
      <trkpt lat="46.25009" lon="-1.04424">
        <ele>2.7</ele>
        <time>2015-11-30T09:15:30Z</time>
      </trkpt>
      <trkpt lat="46.25027" lon="-1.04417">
        <ele>3.9</ele>
        <time>2015-11-30T09:15:43Z</time>
      </trkpt>
      <trkpt lat="46.25034" lon="-1.04414">
        <ele>3.6</ele>
        <time>2015-11-30T09:15:49Z</time>
      </trkpt>
      <trkpt lat="46.25036" lon="-1.04415">
        <ele>3.6</ele>
        <time>2015-11-30T09:17:21Z</time>
      </trkpt>
      <trkpt lat="46.25053" lon="-1.04407">
        <ele>2.7</ele>
        <time>2015-11-30T09:17:46Z</time>
      </trkpt>
      <trkpt lat="46.25067" lon="-1.04403">
        <ele>2.7</ele>
        <time>2015-11-30T09:19:04Z</time>
      </trkpt>
      <trkpt lat="46.25085" lon="-1.04396">
        <ele>3</ele>
        <time>2015-11-30T09:19:22Z</time>
      </trkpt>
      <trkpt lat="46.25103" lon="-1.0439">
        <ele>3</ele>
        <time>2015-11-30T09:19:36Z</time>
      </trkpt>
      <trkpt lat="46.25121" lon="-1.04383">
        <ele>2.8</ele>
        <time>2015-11-30T09:20:02Z</time>
      </trkpt>
      <trkpt lat="46.25138" lon="-1.04373">
        <ele>2.4</ele>
        <time>2015-11-30T09:20:26Z</time>
      </trkpt>
      <trkpt lat="46.25157" lon="-1.04367">
        <ele>3.2</ele>
        <time>2015-11-30T09:20:41Z</time>
      </trkpt>
      <trkpt lat="46.25174" lon="-1.0436">
        <ele>3.7</ele>
        <time>2015-11-30T09:20:55Z</time>
      </trkpt>
      <trkpt lat="46.25193" lon="-1.04352">
        <ele>2.7</ele>
        <time>2015-11-30T09:21:10Z</time>
      </trkpt>
      <trkpt lat="46.25211" lon="-1.04343">
        <ele>2.7</ele>
        <time>2015-11-30T09:21:24Z</time>
      </trkpt>
      <trkpt lat="46.25229" lon="-1.04338">
        <ele>3.2</ele>
        <time>2015-11-30T09:21:39Z</time>
      </trkpt>
      <trkpt lat="46.25248" lon="-1.04331">
        <ele>3.8</ele>
        <time>2015-11-30T09:21:53Z</time>
      </trkpt>
      <trkpt lat="46.25266" lon="-1.04325">
        <ele>3</ele>
        <time>2015-11-30T09:22:07Z</time>
      </trkpt>
      <trkpt lat="46.25284" lon="-1.04318">
        <ele>2.6</ele>
        <time>2015-11-30T09:22:21Z</time>
      </trkpt>
      <trkpt lat="46.25302" lon="-1.04312">
        <ele>2.9</ele>
        <time>2015-11-30T09:22:35Z</time>
      </trkpt>
      <trkpt lat="46.25321" lon="-1.04306">
        <ele>3</ele>
        <time>2015-11-30T09:22:49Z</time>
      </trkpt>
      <trkpt lat="46.25339" lon="-1.043">
        <ele>2.8</ele>
        <time>2015-11-30T09:23:03Z</time>
      </trkpt>
      <trkpt lat="46.25357" lon="-1.04293">
        <ele>2.5</ele>
        <time>2015-11-30T09:23:16Z</time>
      </trkpt>
      <trkpt lat="46.25375" lon="-1.04285">
        <ele>2.5</ele>
        <time>2015-11-30T09:23:30Z</time>
      </trkpt>
      <trkpt lat="46.25393" lon="-1.04279">
        <ele>3.1</ele>
        <time>2015-11-30T09:23:43Z</time>
      </trkpt>
      <trkpt lat="46.2541" lon="-1.0427">
        <ele>3.3</ele>
        <time>2015-11-30T09:23:56Z</time>
      </trkpt>
      <trkpt lat="46.25429" lon="-1.04265">
        <ele>2.8</ele>
        <time>2015-11-30T09:24:11Z</time>
      </trkpt>
      <trkpt lat="46.25447" lon="-1.0426">
        <ele>2.4</ele>
        <time>2015-11-30T09:24:24Z</time>
      </trkpt>
      <trkpt lat="46.25465" lon="-1.04254">
        <ele>2.7</ele>
        <time>2015-11-30T09:24:37Z</time>
      </trkpt>
      <trkpt lat="46.25483" lon="-1.04247">
        <ele>2.9</ele>
        <time>2015-11-30T09:24:50Z</time>
      </trkpt>
      <trkpt lat="46.25501" lon="-1.04241">
        <ele>2.6</ele>
        <time>2015-11-30T09:25:02Z</time>
      </trkpt>
      <trkpt lat="46.2552" lon="-1.04232">
        <ele>2.1</ele>
        <time>2015-11-30T09:25:15Z</time>
      </trkpt>
      <trkpt lat="46.25538" lon="-1.04224">
        <ele>2.4</ele>
        <time>2015-11-30T09:25:28Z</time>
      </trkpt>
      <trkpt lat="46.25556" lon="-1.04217">
        <ele>2.8</ele>
        <time>2015-11-30T09:25:41Z</time>
      </trkpt>
      <trkpt lat="46.25575" lon="-1.0421">
        <ele>2.6</ele>
        <time>2015-11-30T09:25:55Z</time>
      </trkpt>
      <trkpt lat="46.25593" lon="-1.04203">
        <ele>2.4</ele>
        <time>2015-11-30T09:26:08Z</time>
      </trkpt>
      <trkpt lat="46.25611" lon="-1.04196">
        <ele>3</ele>
        <time>2015-11-30T09:26:22Z</time>
      </trkpt>
      <trkpt lat="46.25629" lon="-1.04189">
        <ele>2.8</ele>
        <time>2015-11-30T09:26:36Z</time>
      </trkpt>
      <trkpt lat="46.25647" lon="-1.04181">
        <ele>2.5</ele>
        <time>2015-11-30T09:26:49Z</time>
      </trkpt>
      <trkpt lat="46.25665" lon="-1.04174">
        <ele>2.3</ele>
        <time>2015-11-30T09:27:02Z</time>
      </trkpt>
      <trkpt lat="46.25683" lon="-1.04169">
        <ele>3.2</ele>
        <time>2015-11-30T09:27:16Z</time>
      </trkpt>
      <trkpt lat="46.25702" lon="-1.04163">
        <ele>3.5</ele>
        <time>2015-11-30T09:27:31Z</time>
      </trkpt>
      <trkpt lat="46.2572" lon="-1.04157">
        <ele>2.7</ele>
        <time>2015-11-30T09:27:45Z</time>
      </trkpt>
      <trkpt lat="46.25738" lon="-1.04148">
        <ele>2.7</ele>
        <time>2015-11-30T09:27:59Z</time>
      </trkpt>
      <trkpt lat="46.25755" lon="-1.0414">
        <ele>3</ele>
        <time>2015-11-30T09:28:14Z</time>
      </trkpt>
      <trkpt lat="46.25774" lon="-1.04135">
        <ele>2.9</ele>
        <time>2015-11-30T09:28:30Z</time>
      </trkpt>
      <trkpt lat="46.25792" lon="-1.04129">
        <ele>2.6</ele>
        <time>2015-11-30T09:28:44Z</time>
      </trkpt>
      <trkpt lat="46.25811" lon="-1.04123">
        <ele>2.7</ele>
        <time>2015-11-30T09:28:58Z</time>
      </trkpt>
      <trkpt lat="46.2583" lon="-1.04119">
        <ele>3.5</ele>
        <time>2015-11-30T09:29:12Z</time>
      </trkpt>
      <trkpt lat="46.25837" lon="-1.04116">
        <ele>3.8</ele>
        <time>2015-11-30T09:29:18Z</time>
      </trkpt>
      <trkpt lat="46.2585" lon="-1.04111">
        <ele>4</ele>
        <time>2015-11-30T09:29:29Z</time>
      </trkpt>
      <trkpt lat="46.25868" lon="-1.04104">
        <ele>3.4</ele>
        <time>2015-11-30T09:29:45Z</time>
      </trkpt>
      <trkpt lat="46.25886" lon="-1.04097">
        <ele>3</ele>
        <time>2015-11-30T09:29:59Z</time>
      </trkpt>
      <trkpt lat="46.25905" lon="-1.0409">
        <ele>2.9</ele>
        <time>2015-11-30T09:30:13Z</time>
      </trkpt>
      <trkpt lat="46.25922" lon="-1.04082">
        <ele>3</ele>
        <time>2015-11-30T09:30:27Z</time>
      </trkpt>
      <trkpt lat="46.2594" lon="-1.04075">
        <ele>2.7</ele>
        <time>2015-11-30T09:30:43Z</time>
      </trkpt>
      <trkpt lat="46.25959" lon="-1.04069">
        <ele>2.5</ele>
        <time>2015-11-30T09:30:57Z</time>
      </trkpt>
      <trkpt lat="46.25977" lon="-1.04062">
        <ele>2.8</ele>
        <time>2015-11-30T09:31:11Z</time>
      </trkpt>
      <trkpt lat="46.25995" lon="-1.04055">
        <ele>3</ele>
        <time>2015-11-30T09:31:24Z</time>
      </trkpt>
      <trkpt lat="46.26012" lon="-1.04049">
        <ele>2.8</ele>
        <time>2015-11-30T09:31:38Z</time>
      </trkpt>
      <trkpt lat="46.26031" lon="-1.04041">
        <ele>2.4</ele>
        <time>2015-11-30T09:31:53Z</time>
      </trkpt>
      <trkpt lat="46.26048" lon="-1.04034">
        <ele>2.1</ele>
        <time>2015-11-30T09:32:06Z</time>
      </trkpt>
      <trkpt lat="46.26066" lon="-1.04028">
        <ele>2.8</ele>
        <time>2015-11-30T09:32:20Z</time>
      </trkpt>
      <trkpt lat="46.26084" lon="-1.04023">
        <ele>3.6</ele>
        <time>2015-11-30T09:32:34Z</time>
      </trkpt>
      <trkpt lat="46.261" lon="-1.04011">
        <ele>2.8</ele>
        <time>2015-11-30T09:32:49Z</time>
      </trkpt>
      <trkpt lat="46.26101" lon="-1.04009">
        <ele>2.7</ele>
        <time>2015-11-30T09:32:51Z</time>
      </trkpt>
      <trkpt lat="46.26113" lon="-1.04007">
        <ele>2.5</ele>
        <time>2015-11-30T09:33:06Z</time>
      </trkpt>
      <trkpt lat="46.26131" lon="-1.04003">
        <ele>2.8</ele>
        <time>2015-11-30T09:33:23Z</time>
      </trkpt>
      <trkpt lat="46.26149" lon="-1.04">
        <ele>3</ele>
        <time>2015-11-30T09:33:48Z</time>
      </trkpt>
      <trkpt lat="46.26167" lon="-1.03991">
        <ele>2.7</ele>
        <time>2015-11-30T09:34:01Z</time>
      </trkpt>
      <trkpt lat="46.26185" lon="-1.03983">
        <ele>2.4</ele>
        <time>2015-11-30T09:34:15Z</time>
      </trkpt>
      <trkpt lat="46.26204" lon="-1.03978">
        <ele>2.7</ele>
        <time>2015-11-30T09:34:30Z</time>
      </trkpt>
      <trkpt lat="46.26222" lon="-1.03972">
        <ele>3.9</ele>
        <time>2015-11-30T09:34:43Z</time>
      </trkpt>
      <trkpt lat="46.26239" lon="-1.03965">
        <ele>3</ele>
        <time>2015-11-30T09:34:57Z</time>
      </trkpt>
      <trkpt lat="46.26257" lon="-1.03958">
        <ele>2.5</ele>
        <time>2015-11-30T09:35:11Z</time>
      </trkpt>
      <trkpt lat="46.26275" lon="-1.03951">
        <ele>2.7</ele>
        <time>2015-11-30T09:35:26Z</time>
      </trkpt>
      <trkpt lat="46.26293" lon="-1.03943">
        <ele>3</ele>
        <time>2015-11-30T09:35:40Z</time>
      </trkpt>
      <trkpt lat="46.26311" lon="-1.03938">
        <ele>2.8</ele>
        <time>2015-11-30T09:35:54Z</time>
      </trkpt>
      <trkpt lat="46.2633" lon="-1.03932">
        <ele>2.6</ele>
        <time>2015-11-30T09:36:08Z</time>
      </trkpt>
      <trkpt lat="46.26348" lon="-1.03925">
        <ele>2.1</ele>
        <time>2015-11-30T09:36:22Z</time>
      </trkpt>
      <trkpt lat="46.26365" lon="-1.03918">
        <ele>2.1</ele>
        <time>2015-11-30T09:36:36Z</time>
      </trkpt>
      <trkpt lat="46.26383" lon="-1.03911">
        <ele>2.6</ele>
        <time>2015-11-30T09:36:50Z</time>
      </trkpt>
      <trkpt lat="46.26401" lon="-1.03905">
        <ele>2.6</ele>
        <time>2015-11-30T09:37:04Z</time>
      </trkpt>
      <trkpt lat="46.26419" lon="-1.03896">
        <ele>2.3</ele>
        <time>2015-11-30T09:37:18Z</time>
      </trkpt>
      <trkpt lat="46.26437" lon="-1.03889">
        <ele>2.7</ele>
        <time>2015-11-30T09:37:32Z</time>
      </trkpt>
      <trkpt lat="46.26455" lon="-1.03883">
        <ele>2.8</ele>
        <time>2015-11-30T09:37:47Z</time>
      </trkpt>
      <trkpt lat="46.26474" lon="-1.03877">
        <ele>2.5</ele>
        <time>2015-11-30T09:38:03Z</time>
      </trkpt>
      <trkpt lat="46.26492" lon="-1.0387">
        <ele>2.1</ele>
        <time>2015-11-30T09:38:17Z</time>
      </trkpt>
      <trkpt lat="46.26509" lon="-1.03862">
        <ele>2.3</ele>
        <time>2015-11-30T09:38:31Z</time>
      </trkpt>
      <trkpt lat="46.26527" lon="-1.03854">
        <ele>2.7</ele>
        <time>2015-11-30T09:38:45Z</time>
      </trkpt>
      <trkpt lat="46.26545" lon="-1.0385">
        <ele>2.6</ele>
        <time>2015-11-30T09:38:59Z</time>
      </trkpt>
      <trkpt lat="46.26564" lon="-1.03843">
        <ele>2.4</ele>
        <time>2015-11-30T09:39:13Z</time>
      </trkpt>
      <trkpt lat="46.26582" lon="-1.03838">
        <ele>2.8</ele>
        <time>2015-11-30T09:39:27Z</time>
      </trkpt>
      <trkpt lat="46.266" lon="-1.03832">
        <ele>2.9</ele>
        <time>2015-11-30T09:39:41Z</time>
      </trkpt>
      <trkpt lat="46.26618" lon="-1.03825">
        <ele>2.8</ele>
        <time>2015-11-30T09:39:55Z</time>
      </trkpt>
      <trkpt lat="46.26635" lon="-1.03819">
        <ele>2.9</ele>
        <time>2015-11-30T09:40:09Z</time>
      </trkpt>
      <trkpt lat="46.26654" lon="-1.03811">
        <ele>2.6</ele>
        <time>2015-11-30T09:40:24Z</time>
      </trkpt>
      <trkpt lat="46.2667" lon="-1.03798">
        <ele>2.2</ele>
        <time>2015-11-30T09:40:41Z</time>
      </trkpt>
      <trkpt lat="46.26676" lon="-1.03795">
        <ele>2.4</ele>
        <time>2015-11-30T09:40:49Z</time>
      </trkpt>
      <trkpt lat="46.26679" lon="-1.03773">
        <ele>2.3</ele>
        <time>2015-11-30T09:41:23Z</time>
      </trkpt>
      <trkpt lat="46.26673" lon="-1.03748">
        <ele>3.2</ele>
        <time>2015-11-30T09:41:39Z</time>
      </trkpt>
      <trkpt lat="46.26676" lon="-1.03721">
        <ele>3.3</ele>
        <time>2015-11-30T09:41:53Z</time>
      </trkpt>
      <trkpt lat="46.26692" lon="-1.03709">
        <ele>3.5</ele>
        <time>2015-11-30T09:42:07Z</time>
      </trkpt>
      <trkpt lat="46.2671" lon="-1.0371">
        <ele>3.5</ele>
        <time>2015-11-30T09:42:21Z</time>
      </trkpt>
      <trkpt lat="46.26727" lon="-1.03706">
        <ele>3.3</ele>
        <time>2015-11-30T09:42:36Z</time>
      </trkpt>
      <trkpt lat="46.26728" lon="-1.03705">
        <ele>3.2</ele>
        <time>2015-11-30T09:42:37Z</time>
      </trkpt>
      <trkpt lat="46.26733" lon="-1.03692">
        <ele>2.6</ele>
        <time>2015-11-30T09:42:45Z</time>
      </trkpt>
      <trkpt lat="46.26731" lon="-1.03665">
        <ele>2.7</ele>
        <time>2015-11-30T09:43:00Z</time>
      </trkpt>
      <trkpt lat="46.26724" lon="-1.03639">
        <ele>2.9</ele>
        <time>2015-11-30T09:43:14Z</time>
      </trkpt>
      <trkpt lat="46.26718" lon="-1.03614">
        <ele>2.1</ele>
        <time>2015-11-30T09:43:28Z</time>
      </trkpt>
      <trkpt lat="46.26712" lon="-1.03589">
        <ele>2</ele>
        <time>2015-11-30T09:43:42Z</time>
      </trkpt>
      <trkpt lat="46.26706" lon="-1.03563">
        <ele>2</ele>
        <time>2015-11-30T09:43:56Z</time>
      </trkpt>
      <trkpt lat="46.26698" lon="-1.03542">
        <ele>2</ele>
        <time>2015-11-30T09:44:08Z</time>
      </trkpt>
      <trkpt lat="46.2669" lon="-1.03518">
        <ele>2</ele>
        <time>2015-11-30T09:44:21Z</time>
      </trkpt>
      <trkpt lat="46.26681" lon="-1.03494">
        <ele>2</ele>
        <time>2015-11-30T09:44:34Z</time>
      </trkpt>
      <trkpt lat="46.26672" lon="-1.03472">
        <ele>2</ele>
        <time>2015-11-30T09:44:47Z</time>
      </trkpt>
      <trkpt lat="46.26665" lon="-1.03455">
        <ele>2</ele>
        <time>2015-11-30T09:44:58Z</time>
      </trkpt>
      <trkpt lat="46.26657" lon="-1.03431">
        <ele>2.2</ele>
        <time>2015-11-30T09:45:12Z</time>
      </trkpt>
      <trkpt lat="46.26651" lon="-1.03406">
        <ele>2.4</ele>
        <time>2015-11-30T09:45:25Z</time>
      </trkpt>
      <trkpt lat="46.26645" lon="-1.0338">
        <ele>2.3</ele>
        <time>2015-11-30T09:45:39Z</time>
      </trkpt>
      <trkpt lat="46.2664" lon="-1.03353">
        <ele>2.7</ele>
        <time>2015-11-30T09:45:52Z</time>
      </trkpt>
      <trkpt lat="46.26639" lon="-1.03344">
        <ele>2.4</ele>
        <time>2015-11-30T09:45:57Z</time>
      </trkpt>
      <trkpt lat="46.26635" lon="-1.03317">
        <ele>2.1</ele>
        <time>2015-11-30T09:46:12Z</time>
      </trkpt>
      <trkpt lat="46.26631" lon="-1.0329">
        <ele>2.3</ele>
        <time>2015-11-30T09:46:25Z</time>
      </trkpt>
      <trkpt lat="46.26627" lon="-1.03264">
        <ele>2.2</ele>
        <time>2015-11-30T09:46:38Z</time>
      </trkpt>
      <trkpt lat="46.26625" lon="-1.03238">
        <ele>2.2</ele>
        <time>2015-11-30T09:46:53Z</time>
      </trkpt>
      <trkpt lat="46.26621" lon="-1.03212">
        <ele>2.4</ele>
        <time>2015-11-30T09:47:07Z</time>
      </trkpt>
      <trkpt lat="46.26617" lon="-1.03185">
        <ele>2.3</ele>
        <time>2015-11-30T09:47:21Z</time>
      </trkpt>
      <trkpt lat="46.26614" lon="-1.03159">
        <ele>2.9</ele>
        <time>2015-11-30T09:47:34Z</time>
      </trkpt>
      <trkpt lat="46.26611" lon="-1.03133">
        <ele>2.8</ele>
        <time>2015-11-30T09:47:47Z</time>
      </trkpt>
      <trkpt lat="46.26607" lon="-1.03107">
        <ele>2.1</ele>
        <time>2015-11-30T09:48:00Z</time>
      </trkpt>
      <trkpt lat="46.26603" lon="-1.03081">
        <ele>2</ele>
        <time>2015-11-30T09:48:13Z</time>
      </trkpt>
      <trkpt lat="46.26602" lon="-1.03076">
        <ele>2</ele>
        <time>2015-11-30T09:48:16Z</time>
      </trkpt>
      <trkpt lat="46.26601" lon="-1.03062">
        <ele>2</ele>
        <time>2015-11-30T09:48:23Z</time>
      </trkpt>
      <trkpt lat="46.26596" lon="-1.03036">
        <ele>2.7</ele>
        <time>2015-11-30T09:48:36Z</time>
      </trkpt>
      <trkpt lat="46.26594" lon="-1.03009">
        <ele>3</ele>
        <time>2015-11-30T09:48:49Z</time>
      </trkpt>
      <trkpt lat="46.2659" lon="-1.02983">
        <ele>2.9</ele>
        <time>2015-11-30T09:49:02Z</time>
      </trkpt>
      <trkpt lat="46.26586" lon="-1.02958">
        <ele>3</ele>
        <time>2015-11-30T09:49:15Z</time>
      </trkpt>
      <trkpt lat="46.26583" lon="-1.02932">
        <ele>2.5</ele>
        <time>2015-11-30T09:49:28Z</time>
      </trkpt>
      <trkpt lat="46.26579" lon="-1.02906">
        <ele>2.3</ele>
        <time>2015-11-30T09:49:41Z</time>
      </trkpt>
      <trkpt lat="46.26575" lon="-1.0288">
        <ele>2.7</ele>
        <time>2015-11-30T09:49:54Z</time>
      </trkpt>
      <trkpt lat="46.26574" lon="-1.02876">
        <ele>2.7</ele>
        <time>2015-11-30T09:49:56Z</time>
      </trkpt>
      <trkpt lat="46.26572" lon="-1.0285">
        <ele>2.6</ele>
        <time>2015-11-30T09:50:09Z</time>
      </trkpt>
      <trkpt lat="46.26568" lon="-1.02823">
        <ele>2.7</ele>
        <time>2015-11-30T09:50:22Z</time>
      </trkpt>
      <trkpt lat="46.26565" lon="-1.02796">
        <ele>2.9</ele>
        <time>2015-11-30T09:50:36Z</time>
      </trkpt>
      <trkpt lat="46.26561" lon="-1.02768">
        <ele>2.8</ele>
        <time>2015-11-30T09:50:50Z</time>
      </trkpt>
      <trkpt lat="46.26557" lon="-1.02742">
        <ele>2.9</ele>
        <time>2015-11-30T09:51:04Z</time>
      </trkpt>
      <trkpt lat="46.26554" lon="-1.02714">
        <ele>2.7</ele>
        <time>2015-11-30T09:51:18Z</time>
      </trkpt>
      <trkpt lat="46.26551" lon="-1.02689">
        <ele>2.2</ele>
        <time>2015-11-30T09:51:31Z</time>
      </trkpt>
      <trkpt lat="46.26547" lon="-1.02662">
        <ele>2.7</ele>
        <time>2015-11-30T09:51:44Z</time>
      </trkpt>
      <trkpt lat="46.26544" lon="-1.02637">
        <ele>2.6</ele>
        <time>2015-11-30T09:51:57Z</time>
      </trkpt>
      <trkpt lat="46.26539" lon="-1.02611">
        <ele>3</ele>
        <time>2015-11-30T09:52:10Z</time>
      </trkpt>
      <trkpt lat="46.26535" lon="-1.02585">
        <ele>3</ele>
        <time>2015-11-30T09:52:23Z</time>
      </trkpt>
      <trkpt lat="46.26531" lon="-1.02558">
        <ele>3</ele>
        <time>2015-11-30T09:52:37Z</time>
      </trkpt>
      <trkpt lat="46.26528" lon="-1.02532">
        <ele>3</ele>
        <time>2015-11-30T09:52:51Z</time>
      </trkpt>
      <trkpt lat="46.26526" lon="-1.02506">
        <ele>2.9</ele>
        <time>2015-11-30T09:53:04Z</time>
      </trkpt>
      <trkpt lat="46.26531" lon="-1.02481">
        <ele>3.5</ele>
        <time>2015-11-30T09:53:18Z</time>
      </trkpt>
      <trkpt lat="46.26525" lon="-1.02458">
        <ele>2.9</ele>
        <time>2015-11-30T09:53:32Z</time>
      </trkpt>
      <trkpt lat="46.26513" lon="-1.02438">
        <ele>2.7</ele>
        <time>2015-11-30T09:53:46Z</time>
      </trkpt>
      <trkpt lat="46.26512" lon="-1.02437">
        <ele>2.7</ele>
        <time>2015-11-30T09:53:47Z</time>
      </trkpt>
      <trkpt lat="46.26507" lon="-1.02426">
        <ele>3.2</ele>
        <time>2015-11-30T09:54:14Z</time>
      </trkpt>
      <trkpt lat="46.265" lon="-1.02403">
        <ele>3.5</ele>
        <time>2015-11-30T09:54:29Z</time>
      </trkpt>
      <trkpt lat="46.26496" lon="-1.02387">
        <ele>3</ele>
        <time>2015-11-30T09:54:38Z</time>
      </trkpt>
      <trkpt lat="46.26496" lon="-1.02379">
        <ele>3</ele>
        <time>2015-11-30T09:54:42Z</time>
      </trkpt>
      <trkpt lat="46.26492" lon="-1.02353">
        <ele>2.8</ele>
        <time>2015-11-30T09:54:56Z</time>
      </trkpt>
      <trkpt lat="46.26492" lon="-1.02352">
        <ele>2.8</ele>
        <time>2015-11-30T09:54:57Z</time>
      </trkpt>
      <trkpt lat="46.26486" lon="-1.02328">
        <ele>2.5</ele>
        <time>2015-11-30T09:55:11Z</time>
      </trkpt>
      <trkpt lat="46.26481" lon="-1.02307">
        <ele>2.7</ele>
        <time>2015-11-30T09:55:22Z</time>
      </trkpt>
      <trkpt lat="46.26475" lon="-1.02282">
        <ele>2.9</ele>
        <time>2015-11-30T09:55:35Z</time>
      </trkpt>
      <trkpt lat="46.2647" lon="-1.02257">
        <ele>3</ele>
        <time>2015-11-30T09:55:47Z</time>
      </trkpt>
      <trkpt lat="46.26464" lon="-1.02231">
        <ele>3</ele>
        <time>2015-11-30T09:56:00Z</time>
      </trkpt>
      <trkpt lat="46.26451" lon="-1.0221">
        <ele>3.3</ele>
        <time>2015-11-30T09:56:12Z</time>
      </trkpt>
      <trkpt lat="46.26433" lon="-1.02205">
        <ele>3.6</ele>
        <time>2015-11-30T09:56:27Z</time>
      </trkpt>
      <trkpt lat="46.26414" lon="-1.02205">
        <ele>3.6</ele>
        <time>2015-11-30T09:56:42Z</time>
      </trkpt>
      <trkpt lat="46.26395" lon="-1.02205">
        <ele>3.6</ele>
        <time>2015-11-30T09:56:55Z</time>
      </trkpt>
      <trkpt lat="46.26377" lon="-1.02204">
        <ele>4</ele>
        <time>2015-11-30T09:57:08Z</time>
      </trkpt>
      <trkpt lat="46.26358" lon="-1.02202">
        <ele>4.4</ele>
        <time>2015-11-30T09:57:22Z</time>
      </trkpt>
      <trkpt lat="46.26339" lon="-1.02198">
        <ele>4</ele>
        <time>2015-11-30T09:57:36Z</time>
      </trkpt>
      <trkpt lat="46.2632" lon="-1.02193">
        <ele>3.8</ele>
        <time>2015-11-30T09:57:50Z</time>
      </trkpt>
      <trkpt lat="46.26302" lon="-1.02188">
        <ele>3.6</ele>
        <time>2015-11-30T09:58:05Z</time>
      </trkpt>
      <trkpt lat="46.26283" lon="-1.02184">
        <ele>3.2</ele>
        <time>2015-11-30T09:58:17Z</time>
      </trkpt>
      <trkpt lat="46.26265" lon="-1.02182">
        <ele>3</ele>
        <time>2015-11-30T09:58:31Z</time>
      </trkpt>
      <trkpt lat="46.26246" lon="-1.02181">
        <ele>3</ele>
        <time>2015-11-30T09:58:44Z</time>
      </trkpt>
      <trkpt lat="46.26227" lon="-1.02183">
        <ele>3</ele>
        <time>2015-11-30T09:58:58Z</time>
      </trkpt>
      <trkpt lat="46.26208" lon="-1.02183">
        <ele>3</ele>
        <time>2015-11-30T09:59:12Z</time>
      </trkpt>
      <trkpt lat="46.2619" lon="-1.0218">
        <ele>3</ele>
        <time>2015-11-30T09:59:27Z</time>
      </trkpt>
      <trkpt lat="46.26173" lon="-1.02173">
        <ele>3</ele>
        <time>2015-11-30T09:59:40Z</time>
      </trkpt>
      <trkpt lat="46.26154" lon="-1.02166">
        <ele>3</ele>
        <time>2015-11-30T09:59:53Z</time>
      </trkpt>
      <trkpt lat="46.26137" lon="-1.02157">
        <ele>3</ele>
        <time>2015-11-30T10:00:06Z</time>
      </trkpt>
      <trkpt lat="46.2612" lon="-1.02146">
        <ele>3</ele>
        <time>2015-11-30T10:00:19Z</time>
      </trkpt>
      <trkpt lat="46.26104" lon="-1.02136">
        <ele>3</ele>
        <time>2015-11-30T10:00:32Z</time>
      </trkpt>
      <trkpt lat="46.26086" lon="-1.02125">
        <ele>3</ele>
        <time>2015-11-30T10:00:49Z</time>
      </trkpt>
      <trkpt lat="46.2607" lon="-1.02113">
        <ele>3.5</ele>
        <time>2015-11-30T10:01:02Z</time>
      </trkpt>
      <trkpt lat="46.26051" lon="-1.02108">
        <ele>3.9</ele>
        <time>2015-11-30T10:01:15Z</time>
      </trkpt>
      <trkpt lat="46.26032" lon="-1.02106">
        <ele>4</ele>
        <time>2015-11-30T10:01:28Z</time>
      </trkpt>
      <trkpt lat="46.26014" lon="-1.02106">
        <ele>4.6</ele>
        <time>2015-11-30T10:01:41Z</time>
      </trkpt>
      <trkpt lat="46.25994" lon="-1.02108">
        <ele>5.5</ele>
        <time>2015-11-30T10:01:56Z</time>
      </trkpt>
      <trkpt lat="46.25976" lon="-1.02111">
        <ele>6.8</ele>
        <time>2015-11-30T10:02:10Z</time>
      </trkpt>
      <trkpt lat="46.25956" lon="-1.02114">
        <ele>7.5</ele>
        <time>2015-11-30T10:02:25Z</time>
      </trkpt>
      <trkpt lat="46.25938" lon="-1.02116">
        <ele>8.4</ele>
        <time>2015-11-30T10:02:40Z</time>
      </trkpt>
      <trkpt lat="46.2592" lon="-1.02119">
        <ele>9.5</ele>
        <time>2015-11-30T10:02:54Z</time>
      </trkpt>
      <trkpt lat="46.25902" lon="-1.02122">
        <ele>10.1</ele>
        <time>2015-11-30T10:03:08Z</time>
      </trkpt>
      <trkpt lat="46.25884" lon="-1.02126">
        <ele>10.6</ele>
        <time>2015-11-30T10:03:22Z</time>
      </trkpt>
      <trkpt lat="46.25865" lon="-1.02125">
        <ele>11.4</ele>
        <time>2015-11-30T10:03:37Z</time>
      </trkpt>
      <trkpt lat="46.25846" lon="-1.02125">
        <ele>12</ele>
        <time>2015-11-30T10:03:52Z</time>
      </trkpt>
      <trkpt lat="46.25828" lon="-1.02124">
        <ele>12.6</ele>
        <time>2015-11-30T10:04:06Z</time>
      </trkpt>
      <trkpt lat="46.25808" lon="-1.02122">
        <ele>13</ele>
        <time>2015-11-30T10:04:21Z</time>
      </trkpt>
      <trkpt lat="46.2579" lon="-1.02119">
        <ele>13.6</ele>
        <time>2015-11-30T10:04:35Z</time>
      </trkpt>
      <trkpt lat="46.25771" lon="-1.02117">
        <ele>14.2</ele>
        <time>2015-11-30T10:04:50Z</time>
      </trkpt>
      <trkpt lat="46.25752" lon="-1.02115">
        <ele>14.9</ele>
        <time>2015-11-30T10:05:04Z</time>
      </trkpt>
      <trkpt lat="46.25733" lon="-1.02113">
        <ele>15</ele>
        <time>2015-11-30T10:05:18Z</time>
      </trkpt>
      <trkpt lat="46.25715" lon="-1.02113">
        <ele>15.3</ele>
        <time>2015-11-30T10:05:32Z</time>
      </trkpt>
      <trkpt lat="46.25709" lon="-1.02113">
        <ele>15.5</ele>
        <time>2015-11-30T10:05:37Z</time>
      </trkpt>
      <trkpt lat="46.25701" lon="-1.02113">
        <ele>15.8</ele>
        <time>2015-11-30T10:05:42Z</time>
      </trkpt>
      <trkpt lat="46.25693" lon="-1.02114">
        <ele>16</ele>
        <time>2015-11-30T10:05:48Z</time>
      </trkpt>
      <trkpt lat="46.25675" lon="-1.02114">
        <ele>16</ele>
        <time>2015-11-30T10:06:04Z</time>
      </trkpt>
      <trkpt lat="46.25673" lon="-1.02114">
        <ele>16</ele>
        <time>2015-11-30T10:06:05Z</time>
      </trkpt>
      <trkpt lat="46.25655" lon="-1.02116">
        <ele>16</ele>
        <time>2015-11-30T10:06:19Z</time>
      </trkpt>
      <trkpt lat="46.25636" lon="-1.02118">
        <ele>16</ele>
        <time>2015-11-30T10:06:33Z</time>
      </trkpt>
      <trkpt lat="46.25635" lon="-1.02117">
        <ele>16</ele>
        <time>2015-11-30T10:06:34Z</time>
      </trkpt>
      <trkpt lat="46.25616" lon="-1.02121">
        <ele>16</ele>
        <time>2015-11-30T10:06:48Z</time>
      </trkpt>
      <trkpt lat="46.25597" lon="-1.02126">
        <ele>16</ele>
        <time>2015-11-30T10:07:03Z</time>
      </trkpt>
      <trkpt lat="46.25582" lon="-1.02128">
        <ele>16</ele>
        <time>2015-11-30T10:07:16Z</time>
      </trkpt>
      <trkpt lat="46.25568" lon="-1.02128">
        <ele>16</ele>
        <time>2015-11-30T10:08:17Z</time>
      </trkpt>
      <trkpt lat="46.25565" lon="-1.02133">
        <ele>16</ele>
        <time>2015-11-30T10:08:21Z</time>
      </trkpt>
      <trkpt lat="46.25554" lon="-1.02154">
        <ele>15.5</ele>
        <time>2015-11-30T10:08:36Z</time>
      </trkpt>
      <trkpt lat="46.25542" lon="-1.02174">
        <ele>15.4</ele>
        <time>2015-11-30T10:08:51Z</time>
      </trkpt>
      <trkpt lat="46.25538" lon="-1.02179">
        <ele>15.3</ele>
        <time>2015-11-30T10:08:55Z</time>
      </trkpt>
      <trkpt lat="46.2553" lon="-1.02189">
        <ele>15.2</ele>
        <time>2015-11-30T10:09:04Z</time>
      </trkpt>
      <trkpt lat="46.25524" lon="-1.02185">
        <ele>15.4</ele>
        <time>2015-11-30T10:09:11Z</time>
      </trkpt>
      <trkpt lat="46.25522" lon="-1.0217">
        <ele>15.9</ele>
        <time>2015-11-30T10:09:21Z</time>
      </trkpt>
      <trkpt lat="46.25521" lon="-1.02143">
        <ele>16</ele>
        <time>2015-11-30T10:09:37Z</time>
      </trkpt>
      <trkpt lat="46.25518" lon="-1.02116">
        <ele>16</ele>
        <time>2015-11-30T10:09:52Z</time>
      </trkpt>
      <trkpt lat="46.25516" lon="-1.0209">
        <ele>16.3</ele>
        <time>2015-11-30T10:10:07Z</time>
      </trkpt>
      <trkpt lat="46.25513" lon="-1.02063">
        <ele>16.5</ele>
        <time>2015-11-30T10:10:22Z</time>
      </trkpt>
      <trkpt lat="46.25511" lon="-1.02044">
        <ele>16.8</ele>
        <time>2015-11-30T10:10:33Z</time>
      </trkpt>
      <trkpt lat="46.25514" lon="-1.02026">
        <ele>17</ele>
        <time>2015-11-30T10:10:43Z</time>
      </trkpt>
      <trkpt lat="46.25513" lon="-1.02018">
        <ele>17.2</ele>
        <time>2015-11-30T10:10:48Z</time>
      </trkpt>
      <trkpt lat="46.25513" lon="-1.02008">
        <ele>17.4</ele>
        <time>2015-11-30T10:10:53Z</time>
      </trkpt>
      <trkpt lat="46.25511" lon="-1.01982">
        <ele>17.6</ele>
        <time>2015-11-30T10:11:07Z</time>
      </trkpt>
      <trkpt lat="46.25509" lon="-1.01954">
        <ele>17.9</ele>
        <time>2015-11-30T10:11:22Z</time>
      </trkpt>
      <trkpt lat="46.25514" lon="-1.01934">
        <ele>18.2</ele>
        <time>2015-11-30T10:11:47Z</time>
      </trkpt>
      <trkpt lat="46.25513" lon="-1.01935">
        <ele>18.2</ele>
        <time>2015-11-30T10:12:06Z</time>
      </trkpt>
      <trkpt lat="46.25513" lon="-1.01935">
        <ele>18.2</ele>
        <time>2015-11-30T10:12:18Z</time>
      </trkpt>
    </trkseg>
  </trk>
</gpx>